Terminal Aerodrome Forecast
Issued by NWS Lake Charles, LA

Home | Current Version | Previous Version | Text Only | Print | Product List | Glossary On
Versions: 1 2 3 4 5 6 7 8 9 10 11 12
000
FTUS44 KLCH 200522
TAFLCH
TAF
KLCH 200522Z 2006/2106 12008KT P6SM VCSH SCT025 BKN120
     FM200800 12007KT P6SM VCSH OVC015
     FM201700 16013G20KT P6SM VCSH BKN025=

USA.gov is the U.S. government's official web portal to all federal, state and local government web resources and services.